createdAt,value
2022-12-12T00:00:47.285Z,-0.70
2022-12-12T00:03:15.338Z,-0.70
2022-12-12T00:05:43.183Z,-0.70
2022-12-12T00:08:12.421Z,-0.80
2022-12-12T00:10:40.342Z,-0.80
2022-12-12T00:13:08.163Z,-0.90
2022-12-12T00:15:36.060Z,-0.80
2022-12-12T00:18:03.907Z,-0.80
2022-12-12T00:20:32.044Z,-0.80
2022-12-12T00:22:59.848Z,-0.80
2022-12-12T00:25:29.035Z,-0.80
2022-12-12T00:27:56.900Z,-0.90
2022-12-12T00:30:24.906Z,-0.90
2022-12-12T00:32:52.744Z,-0.90
2022-12-12T00:35:20.533Z,-0.90
2022-12-12T00:37:48.412Z,-0.90
2022-12-12T00:40:16.222Z,-0.90
2022-12-12T00:42:45.432Z,-0.90
2022-12-12T00:45:13.611Z,-1.00
2022-12-12T00:47:41.611Z,-0.90
2022-12-12T00:50:10.484Z,-1.00
2022-12-12T00:52:38.347Z,-1.10
2022-12-12T00:55:07.136Z,-1.10
2022-12-12T00:57:35.284Z,-1.10
2022-12-12T01:00:07.650Z,-1.10
2022-12-12T01:02:35.669Z,-1.20
2022-12-12T01:05:03.618Z,-1.20
2022-12-12T01:07:31.538Z,-1.20
2022-12-12T01:09:59.484Z,-1.30
2022-12-12T01:12:27.340Z,-1.30
2022-12-12T01:14:55.162Z,-1.50
2022-12-12T01:17:24.506Z,-1.50
2022-12-12T01:19:52.408Z,-1.50
2022-12-12T01:22:20.425Z,-1.60
2022-12-12T01:24:48.287Z,-1.70
2022-12-12T01:27:16.077Z,-1.70
2022-12-12T01:29:43.958Z,-1.70
2022-12-12T01:32:11.759Z,-1.70
2022-12-12T01:34:40.984Z,-1.70
2022-12-12T01:37:08.805Z,-1.80
2022-12-12T01:39:36.726Z,-1.80
2022-12-12T01:42:04.723Z,-1.80
2022-12-12T01:44:42.513Z,-1.80
2022-12-12T01:47:10.418Z,-1.90
2022-12-12T01:49:39.826Z,-1.90
2022-12-12T01:52:11.989Z,-2.00
2022-12-12T01:54:43.264Z,-2.00
2022-12-12T01:57:14.854Z,-2.00
2022-12-12T01:59:43.404Z,-2.00
2022-12-12T02:02:11.512Z,-2.10
2022-12-12T02:04:41.920Z,-2.20
2022-12-12T02:07:10.119Z,-2.20
2022-12-12T02:09:38.947Z,-2.20
2022-12-12T02:12:07.377Z,-2.30
2022-12-12T02:14:39.107Z,-2.30
2022-12-12T02:17:33.418Z,-2.30
2022-12-12T02:20:34.968Z,-2.40
2022-12-12T02:23:39.475Z,-2.50
2022-12-12T02:26:36.990Z,-2.50
2022-12-12T02:29:38.178Z,-2.60
2022-12-12T02:32:14.275Z,-2.60
2022-12-12T02:34:50.567Z,-2.60
2022-12-12T02:37:26.214Z,-2.70
2022-12-12T02:40:03.558Z,-2.60
2022-12-12T02:42:41.863Z,-2.70
2022-12-12T02:45:15.727Z,-2.70
2022-12-12T02:47:48.847Z,-2.80
2022-12-12T02:50:20.935Z,-2.80
2022-12-12T02:52:49.303Z,-2.80
2022-12-12T02:55:18.738Z,-2.90
2022-12-12T02:57:47.349Z,-2.90
2022-12-12T03:00:17.731Z,-2.90
2022-12-12T03:03:22.552Z,-3.00
2022-12-12T03:06:21.080Z,-3.10
2022-12-12T03:09:00.049Z,-3.10
2022-12-12T03:11:35.565Z,-3.10
2022-12-12T03:14:10.569Z,-3.20
2022-12-12T03:16:44.593Z,-3.20
2022-12-12T03:19:21.963Z,-3.20
2022-12-12T03:21:53.109Z,-3.30
2022-12-12T03:24:25.639Z,-3.30
2022-12-12T03:26:57.260Z,-3.40
2022-12-12T03:29:29.966Z,-3.40
2022-12-12T03:32:04.782Z,-3.50
2022-12-12T03:34:38.087Z,-3.50
2022-12-12T03:37:11.602Z,-3.50
2022-12-12T03:39:43.678Z,-3.50
2022-12-12T03:42:15.945Z,-3.50
2022-12-12T03:44:48.769Z,-3.60
2022-12-12T03:47:21.196Z,-3.60
2022-12-12T03:49:55.729Z,-3.70
2022-12-12T03:52:28.931Z,-3.60
2022-12-12T03:55:01.048Z,-3.70
2022-12-12T03:57:34.198Z,-3.70
2022-12-12T04:00:05.770Z,-3.70
2022-12-12T04:02:45.823Z,-3.70
2022-12-12T04:05:20.404Z,-3.70
2022-12-12T04:07:55.101Z,-3.70
2022-12-12T04:10:43.691Z,-3.70
2022-12-12T04:13:16.333Z,-3.70
2022-12-12T04:15:56.183Z,-3.70
2022-12-12T04:18:34.846Z,-3.70
2022-12-12T04:21:31.974Z,-3.80
2022-12-12T04:24:05.959Z,-3.70
2022-12-12T04:26:42.791Z,-3.80
2022-12-12T04:29:22.105Z,-3.80
2022-12-12T04:31:55.833Z,-3.80
2022-12-12T04:34:30.872Z,-3.90
2022-12-12T04:37:01.432Z,-3.90
2022-12-12T04:39:31.088Z,-3.90
2022-12-12T04:42:01.322Z,-3.90
2022-12-12T04:44:32.904Z,-4.00
2022-12-12T04:47:03.899Z,-4.10
2022-12-12T04:49:34.537Z,-4.10
2022-12-12T04:52:07.055Z,-4.10
2022-12-12T04:54:40.775Z,-4.00
2022-12-12T04:57:11.261Z,-4.00
2022-12-12T04:59:39.381Z,-4.00
2022-12-12T05:02:13.813Z,-4.00
2022-12-12T05:04:48.281Z,-4.10
2022-12-12T05:07:22.383Z,-4.00
2022-12-12T05:09:51.159Z,-3.90
2022-12-12T05:12:18.993Z,-3.90
2022-12-12T05:14:47.565Z,-3.80
2022-12-12T05:17:21.467Z,-3.70
2022-12-12T05:19:49.358Z,-3.60
2022-12-12T05:22:18.484Z,-3.60
2022-12-12T05:24:46.306Z,-3.60
2022-12-12T05:27:14.129Z,-3.50
2022-12-12T05:29:42.082Z,-3.50
2022-12-12T05:32:09.956Z,-3.40
2022-12-12T05:34:37.773Z,-3.30
2022-12-12T05:37:05.614Z,-3.20
2022-12-12T05:39:34.896Z,-3.20
2022-12-12T05:42:02.732Z,-3.10
2022-12-12T05:44:30.672Z,-3.00
2022-12-12T05:46:58.506Z,-2.80
2022-12-12T05:49:26.419Z,-2.70
2022-12-12T05:51:54.193Z,-2.40
2022-12-12T05:54:22.179Z,-2.40
2022-12-12T05:56:51.358Z,-2.30
2022-12-12T05:59:19.160Z,-2.40
2022-12-12T06:01:46.972Z,-2.40
2022-12-12T06:04:14.961Z,-2.40
2022-12-12T06:06:42.816Z,-2.40
2022-12-12T06:09:10.721Z,-2.40
2022-12-12T06:11:38.535Z,-2.30
2022-12-12T06:14:07.863Z,-2.30
2022-12-12T06:16:36.655Z,-2.30
2022-12-12T06:19:05.504Z,-2.20
2022-12-12T06:21:33.470Z,-2.20
2022-12-12T06:24:01.386Z,-1.50
2022-12-12T06:26:29.211Z,-1.20
2022-12-12T06:28:57.176Z,-1.30
2022-12-12T06:31:26.804Z,-1.40
2022-12-12T06:33:54.747Z,-1.60
2022-12-12T06:36:24.737Z,-1.70
2022-12-12T06:38:53.179Z,-1.70
2022-12-12T06:41:21.597Z,-1.70
2022-12-12T06:43:49.826Z,-1.70
2022-12-12T06:46:20.287Z,-1.70
2022-12-12T06:48:51.507Z,-1.70
2022-12-12T06:51:21.202Z,-1.70
2022-12-12T06:53:49.459Z,-1.70
2022-12-12T06:56:19.204Z,-1.70
2022-12-12T06:58:47.884Z,-1.80
2022-12-12T07:01:20.145Z,-1.80
2022-12-12T07:03:50.644Z,-1.80
2022-12-12T07:06:20.075Z,-1.90
2022-12-12T07:08:48.361Z,-1.90
2022-12-12T07:11:18.736Z,-1.90
2022-12-12T07:13:46.782Z,-1.90
2022-12-12T07:16:14.760Z,-1.90
2022-12-12T07:18:43.014Z,-1.90
2022-12-12T07:21:15.187Z,-2.00
2022-12-12T07:23:43.355Z,-2.00
2022-12-12T07:26:15.184Z,-2.00
2022-12-12T07:28:43.353Z,-2.00
2022-12-12T07:31:13.802Z,-2.10
2022-12-12T07:33:44.404Z,-2.10
2022-12-12T07:36:15.744Z,-2.10
2022-12-12T07:38:44.442Z,-2.20
2022-12-12T07:41:13.661Z,-2.30
2022-12-12T07:43:44.966Z,-2.20
2022-12-12T07:46:16.040Z,-2.40
2022-12-12T07:48:44.546Z,-2.50
2022-12-12T07:51:14.317Z,-2.70
2022-12-12T07:53:42.601Z,-2.70
2022-12-12T07:56:12.636Z,-2.70
2022-12-12T07:58:41.093Z,-2.70
2022-12-12T08:01:14.945Z,-2.60
2022-12-12T08:03:43.978Z,-2.60
2022-12-12T08:06:14.150Z,-2.60
2022-12-12T08:08:42.012Z,-2.60
2022-12-12T08:11:12.763Z,-2.60
2022-12-12T08:13:41.502Z,-2.60
2022-12-12T08:16:14.258Z,-2.60
2022-12-12T08:18:42.161Z,-2.60
2022-12-12T08:21:10.794Z,-2.60
2022-12-12T08:23:40.918Z,-2.60
2022-12-12T08:26:10.579Z,-2.60
2022-12-12T08:28:41.373Z,-2.60
2022-12-12T08:31:09.743Z,-2.60
2022-12-12T08:33:37.897Z,-2.50
2022-12-12T08:36:13.779Z,-2.50
2022-12-12T08:38:43.556Z,-2.50
2022-12-12T08:41:11.628Z,-2.50
2022-12-12T08:43:40.644Z,-2.50
2022-12-12T08:46:15.341Z,-2.60
2022-12-12T08:48:45.433Z,-2.60
2022-12-12T08:51:13.729Z,-2.60
2022-12-12T08:53:44.834Z,-2.60
2022-12-12T08:56:13.113Z,-2.50
2022-12-12T08:58:41.138Z,-2.40
2022-12-12T09:01:11.429Z,-2.30
2022-12-12T09:03:39.968Z,-2.10
2022-12-12T09:06:09.121Z,-2.10
2022-12-12T09:08:37.396Z,-2.00
2022-12-12T09:11:06.890Z,-2.00
2022-12-12T09:13:35.114Z,-2.00
2022-12-12T09:16:03.448Z,-1.90
2022-12-12T09:18:31.381Z,-1.80
2022-12-12T09:21:00.309Z,-1.80
2022-12-12T09:23:29.373Z,-1.70
2022-12-12T09:25:57.345Z,-1.70
2022-12-12T09:28:27.475Z,-1.70
2022-12-12T09:30:55.710Z,-1.70
2022-12-12T09:33:23.743Z,-1.90
2022-12-12T09:35:58.383Z,-1.80
2022-12-12T09:38:27.103Z,-1.70
2022-12-12T09:40:57.549Z,-1.60
2022-12-12T09:43:30.073Z,-1.50
2022-12-12T09:45:58.949Z,-1.30
2022-12-12T09:48:32.035Z,-1.30
2022-12-12T09:50:59.948Z,-1.30
2022-12-12T09:53:28.176Z,-1.30
2022-12-12T09:56:01.516Z,-1.30
2022-12-12T09:58:35.440Z,-1.30
2022-12-12T10:01:10.279Z,-1.20
2022-12-12T10:03:54.974Z,-1.10
2022-12-12T10:06:39.635Z,-0.90
2022-12-12T10:09:25.178Z,-0.70
2022-12-12T10:11:55.150Z,-0.50
2022-12-12T10:14:34.325Z,-0.60
2022-12-12T10:17:04.637Z,-0.70
2022-12-12T10:19:35.233Z,-0.70
2022-12-12T10:22:09.197Z,-0.60
2022-12-12T10:24:42.243Z,-0.70
2022-12-12T10:27:11.949Z,-0.70
2022-12-12T10:29:47.285Z,-0.70
2022-12-12T10:32:31.353Z,-0.80
2022-12-12T10:35:16.883Z,-0.70
2022-12-12T10:37:56.249Z,-0.60
2022-12-12T10:40:42.566Z,-0.70
2022-12-12T10:43:18.369Z,-0.60
2022-12-12T10:46:13.840Z,-0.60
2022-12-12T10:48:41.877Z,-0.50
2022-12-12T10:51:13.070Z,-0.40
2022-12-12T10:53:42.918Z,-0.40
2022-12-12T10:56:13.215Z,-0.30
2022-12-12T10:58:43.200Z,-0.20
2022-12-12T11:01:32.978Z,-0.20
2022-12-12T11:04:06.681Z,-0.20
2022-12-12T11:06:39.248Z,-0.20
2022-12-12T11:09:10.959Z,-0.20
2022-12-12T11:11:39.057Z,-0.20
2022-12-12T11:14:23.622Z,-0.20
2022-12-12T11:16:52.846Z,-0.30
2022-12-12T11:19:23.317Z,-0.30
2022-12-12T11:21:52.601Z,-0.20
2022-12-12T11:24:22.368Z,-0.20
2022-12-12T11:26:53.664Z,-0.20
2022-12-12T11:29:35.663Z,-0.20
2022-12-12T11:32:05.623Z,-0.20
2022-12-12T11:34:36.939Z,-0.30
2022-12-12T11:37:05.129Z,-0.30
2022-12-12T11:39:41.052Z,-0.30
2022-12-12T11:42:20.300Z,-0.20
2022-12-12T11:44:57.739Z,-0.30
2022-12-12T11:47:29.407Z,-0.30
2022-12-12T11:49:59.084Z,-0.30
2022-12-12T11:52:29.519Z,-0.30
2022-12-12T11:54:58.124Z,-0.30
2022-12-12T11:57:40.581Z,-0.40
2022-12-12T12:00:15.401Z,-0.40
2022-12-12T12:03:25.097Z,-0.50
2022-12-12T12:06:08.672Z,-0.50
2022-12-12T12:08:50.546Z,-0.50
2022-12-12T12:11:28.074Z,-0.50
2022-12-12T12:14:11.727Z,-0.50
2022-12-12T12:16:47.893Z,-0.50
2022-12-12T12:19:25.392Z,-0.50
2022-12-12T12:22:03.755Z,-0.40
2022-12-12T12:24:59.695Z,-0.40
2022-12-12T12:27:34.023Z,-0.40
2022-12-12T12:30:20.701Z,-0.50
2022-12-12T12:33:10.777Z,-0.50
2022-12-12T12:35:53.438Z,-0.60
2022-12-12T12:38:27.420Z,-0.70
2022-12-12T12:41:20.445Z,-0.80
2022-12-12T12:44:04.671Z,-0.80
2022-12-12T12:46:42.809Z,-0.90
2022-12-12T12:49:18.642Z,-0.90
2022-12-12T12:51:52.534Z,-0.90
2022-12-12T12:54:25.051Z,-0.90
2022-12-12T12:56:58.748Z,-1.00
2022-12-12T12:59:33.270Z,-1.10
2022-12-12T13:02:06.275Z,-1.30
2022-12-12T13:04:42.115Z,-1.30
2022-12-12T13:07:17.585Z,-1.20
2022-12-12T13:09:50.138Z,-1.20
2022-12-12T13:12:27.495Z,-1.30
2022-12-12T13:14:58.675Z,-1.40
2022-12-12T13:17:40.135Z,-1.30
2022-12-12T13:20:16.694Z,-1.40
2022-12-12T13:23:00.593Z,-1.50
2022-12-12T13:25:38.842Z,-1.50
2022-12-12T13:28:13.593Z,-1.40
2022-12-12T13:30:54.606Z,-1.40
2022-12-12T13:33:39.515Z,-1.30
2022-12-12T13:36:13.421Z,-1.30
2022-12-12T13:38:49.328Z,-1.30
2022-12-12T13:41:17.342Z,-1.40
2022-12-12T13:43:48.348Z,-1.50
2022-12-12T13:46:38.863Z,-1.60
2022-12-12T13:49:31.205Z,-1.70
2022-12-12T13:52:23.256Z,-1.60
2022-12-12T13:54:55.394Z,-1.60
2022-12-12T13:57:32.740Z,-1.60
2022-12-12T14:00:21.662Z,-1.70
2022-12-12T14:03:17.510Z,-1.60
2022-12-12T14:05:47.060Z,-1.70
2022-12-12T14:08:26.248Z,-1.60
2022-12-12T14:10:59.489Z,-1.60
2022-12-12T14:13:32.080Z,-1.60
2022-12-12T14:16:18.124Z,-1.60
2022-12-12T14:19:00.604Z,-1.80
2022-12-12T14:21:40.643Z,-1.80
2022-12-12T14:24:47.807Z,-1.80
2022-12-12T14:27:17.609Z,-1.80
2022-12-12T14:29:46.395Z,-1.80
2022-12-12T14:32:42.252Z,-1.80
2022-12-12T14:35:29.508Z,-1.90
2022-12-12T14:38:04.739Z,-1.90
2022-12-12T14:40:34.669Z,-1.90
2022-12-12T14:43:21.116Z,-1.90
2022-12-12T14:45:56.517Z,-2.10
2022-12-12T14:48:26.725Z,-2.20
2022-12-12T14:51:02.740Z,-2.20
2022-12-12T14:53:34.680Z,-2.20
2022-12-12T14:56:05.134Z,-2.10
2022-12-12T14:58:37.783Z,-2.10
2022-12-12T15:01:07.259Z,-2.10
2022-12-12T15:03:40.589Z,-2.00
2022-12-12T15:06:27.639Z,-2.00
2022-12-12T15:08:58.582Z,-2.00
2022-12-12T15:11:28.783Z,-2.10
2022-12-12T15:13:59.843Z,-2.10
2022-12-12T15:16:30.928Z,-2.00
2022-12-12T15:19:00.639Z,-2.10
2022-12-12T15:21:28.523Z,-2.30
2022-12-12T15:23:56.432Z,-2.30
2022-12-12T15:26:27.812Z,-2.40
2022-12-12T15:28:55.726Z,-2.30
2022-12-12T15:31:25.186Z,-2.40
2022-12-12T15:33:53.088Z,-2.40
2022-12-12T15:36:28.558Z,-2.50
2022-12-12T15:39:21.134Z,-2.40
2022-12-12T15:41:49.557Z,-2.50
2022-12-12T15:44:21.010Z,-2.60
2022-12-12T15:46:50.744Z,-2.60
2022-12-12T15:49:38.768Z,-2.70
2022-12-12T15:52:13.252Z,-2.60
2022-12-12T15:54:48.384Z,-2.60
2022-12-12T15:57:18.440Z,-2.60
2022-12-12T15:59:47.245Z,-2.70
2022-12-12T16:02:28.915Z,-2.70
2022-12-12T16:05:00.348Z,-2.70
2022-12-12T16:07:28.670Z,-2.60
2022-12-12T16:10:01.759Z,-2.60
2022-12-12T16:13:03.221Z,-2.70
2022-12-12T16:15:34.873Z,-2.60
2022-12-12T16:18:07.032Z,-2.60
2022-12-12T16:20:35.636Z,-2.50
2022-12-12T16:23:13.001Z,-2.50
2022-12-12T16:25:40.795Z,-2.70
2022-12-12T16:28:24.692Z,-2.80
2022-12-12T16:30:56.039Z,-2.90
2022-12-12T16:33:35.037Z,-2.90
2022-12-12T16:36:04.910Z,-3.10
2022-12-12T16:38:33.007Z,-3.20
2022-12-12T16:41:02.848Z,-3.20
2022-12-12T16:43:30.794Z,-3.20
2022-12-12T16:45:59.179Z,-3.20
2022-12-12T16:48:32.205Z,-3.10
2022-12-12T16:51:03.972Z,-3.00
2022-12-12T16:53:31.883Z,-3.00
2022-12-12T16:55:59.709Z,-2.80
2022-12-12T16:58:27.612Z,-2.40
2022-12-12T17:00:57.949Z,-2.10
2022-12-12T17:03:25.843Z,-2.20
2022-12-12T17:05:54.014Z,-2.50
2022-12-12T17:08:23.453Z,-2.50
2022-12-12T17:10:53.238Z,-2.50
2022-12-12T17:13:40.104Z,-2.60
2022-12-12T17:16:08.345Z,-2.70
2022-12-12T17:18:36.214Z,-2.70
2022-12-12T17:21:04.133Z,-2.80
2022-12-12T17:23:33.511Z,-2.80
2022-12-12T17:26:04.978Z,-2.60
2022-12-12T17:28:34.489Z,-2.60
2022-12-12T17:31:02.845Z,-2.70
2022-12-12T17:33:31.084Z,-2.90
2022-12-12T17:36:00.788Z,-2.90
2022-12-12T17:38:30.177Z,-3.00
2022-12-12T17:41:03.183Z,-3.00
2022-12-12T17:43:31.183Z,-3.00
2022-12-12T17:46:01.125Z,-3.00
2022-12-12T17:48:30.312Z,-3.10
2022-12-12T17:50:59.550Z,-3.10
2022-12-12T17:53:27.738Z,-3.10
2022-12-12T17:56:01.770Z,-3.20
2022-12-12T17:58:38.413Z,-3.30
2022-12-12T18:01:14.635Z,-3.30
2022-12-12T18:03:43.436Z,-3.30
2022-12-12T18:06:11.647Z,-3.30
2022-12-12T18:08:40.326Z,-3.40
2022-12-12T18:11:09.099Z,-3.50
2022-12-12T18:13:39.531Z,-3.60
2022-12-12T18:16:08.978Z,-3.60
2022-12-12T18:18:37.148Z,-3.60
2022-12-12T18:21:06.091Z,-3.80
2022-12-12T18:23:34.983Z,-3.90
2022-12-12T18:26:04.830Z,-3.90
2022-12-12T18:28:33.089Z,-4.00
2022-12-12T18:31:02.642Z,-4.00
2022-12-12T18:33:30.994Z,-4.00
2022-12-12T18:36:03.597Z,-4.10
2022-12-12T18:38:31.700Z,-4.10
2022-12-12T18:40:59.902Z,-4.10
2022-12-12T18:43:28.501Z,-4.10
2022-12-12T18:45:56.491Z,-4.20
2022-12-12T18:48:25.724Z,-4.20
2022-12-12T18:50:53.593Z,-4.20
2022-12-12T18:53:21.683Z,-4.20
2022-12-12T18:55:49.609Z,-4.30
2022-12-12T18:58:17.388Z,-4.30
2022-12-12T19:00:46.641Z,-4.40
2022-12-12T19:03:14.471Z,-4.50
2022-12-12T19:05:45.426Z,-4.50
2022-12-12T19:08:13.342Z,-4.50
2022-12-12T19:10:41.949Z,-4.50
2022-12-12T19:13:09.780Z,-4.60
2022-12-12T19:15:37.644Z,-4.60
2022-12-12T19:18:06.683Z,-4.60
2022-12-12T19:20:36.370Z,-4.60
2022-12-12T19:23:05.541Z,-4.70
2022-12-12T19:25:39.201Z,-4.70
2022-12-12T19:28:11.387Z,-4.70
2022-12-12T19:30:41.384Z,-4.80
2022-12-12T19:33:09.420Z,-4.80
2022-12-12T19:35:38.138Z,-4.80
2022-12-12T19:38:07.305Z,-4.80
2022-12-12T19:40:35.096Z,-4.90
2022-12-12T19:43:02.988Z,-5.00
2022-12-12T19:45:31.148Z,-5.00
2022-12-12T19:47:58.981Z,-5.00
2022-12-12T19:50:27.580Z,-4.90
2022-12-12T19:52:55.733Z,-4.90
2022-12-12T19:55:24.916Z,-5.00
2022-12-12T19:57:52.811Z,-5.00
2022-12-12T20:00:20.870Z,-5.00
2022-12-12T20:02:48.784Z,-5.00
2022-12-12T20:05:16.636Z,-5.00
2022-12-12T20:07:44.521Z,-5.00
2022-12-12T20:10:13.072Z,-5.00
2022-12-12T20:12:51.820Z,-5.00
2022-12-12T20:15:24.431Z,-5.00
2022-12-12T20:17:52.357Z,-5.00
2022-12-12T20:20:20.826Z,-5.00
2022-12-12T20:22:48.617Z,-5.00
2022-12-12T20:25:16.659Z,-4.90
2022-12-12T20:27:45.816Z,-5.00
2022-12-12T20:30:14.172Z,-5.00
2022-12-12T20:32:42.164Z,-4.90
2022-12-12T20:35:11.529Z,-4.90
2022-12-12T20:37:39.385Z,-4.80
2022-12-12T20:40:08.621Z,-4.80
2022-12-12T20:42:36.459Z,-4.70
2022-12-12T20:45:06.501Z,-4.70
2022-12-12T20:47:34.370Z,-4.60
2022-12-12T20:50:02.267Z,-4.60
2022-12-12T20:52:30.152Z,-4.50
2022-12-12T20:54:58.385Z,-4.50
2022-12-12T20:57:26.275Z,-4.50
2022-12-12T20:59:54.711Z,-4.50
2022-12-12T21:02:27.379Z,-4.40
2022-12-12T21:04:57.996Z,-4.40
2022-12-12T21:07:25.947Z,-4.40
2022-12-12T21:09:53.884Z,-4.40
2022-12-12T21:12:21.657Z,-4.40
2022-12-12T21:14:49.584Z,-4.40
2022-12-12T21:17:17.459Z,-4.40
2022-12-12T21:19:46.629Z,-4.40
2022-12-12T21:22:14.510Z,-4.40
2022-12-12T21:24:42.784Z,-4.30
2022-12-12T21:27:10.624Z,-4.30
2022-12-12T21:29:38.685Z,-4.20
2022-12-12T21:32:06.848Z,-4.20
2022-12-12T21:34:35.161Z,-4.20
2022-12-12T21:37:04.335Z,-4.20
2022-12-12T21:39:32.371Z,-4.10
2022-12-12T21:42:00.205Z,-4.10
2022-12-12T21:44:28.245Z,-4.20
2022-12-12T21:46:57.187Z,-4.20
2022-12-12T21:49:28.623Z,-4.20
2022-12-12T21:51:58.602Z,-4.30
2022-12-12T21:54:29.654Z,-4.20
2022-12-12T21:56:57.949Z,-4.20
2022-12-12T21:59:26.412Z,-4.20
2022-12-12T22:01:55.674Z,-4.30
2022-12-12T22:04:23.656Z,-4.30
2022-12-12T22:06:51.468Z,-4.40
2022-12-12T22:09:19.492Z,-4.40
2022-12-12T22:11:52.117Z,-4.50
2022-12-12T22:14:21.811Z,-4.50
2022-12-12T22:16:50.439Z,-4.60
2022-12-12T22:19:18.906Z,-4.60
2022-12-12T22:21:48.224Z,-4.70
2022-12-12T22:24:16.560Z,-4.70
2022-12-12T22:26:46.427Z,-4.70
2022-12-12T22:29:17.561Z,-4.70
2022-12-12T22:31:46.733Z,-4.70
2022-12-12T22:34:16.562Z,-4.70
2022-12-12T22:36:45.678Z,-4.70
2022-12-12T22:39:15.486Z,-4.80
2022-12-12T22:41:43.369Z,-4.70
2022-12-12T22:44:16.540Z,-4.70
2022-12-12T22:46:45.174Z,-4.70
2022-12-12T22:49:14.353Z,-4.70
2022-12-12T22:51:42.301Z,-4.70
2022-12-12T22:54:10.226Z,-4.80
2022-12-12T22:56:38.704Z,-4.90
2022-12-12T22:59:07.849Z,-4.90
2022-12-12T23:01:37.295Z,-4.90
2022-12-12T23:04:05.567Z,-4.90
2022-12-12T23:06:36.816Z,-4.90
2022-12-12T23:09:07.281Z,-4.90
2022-12-12T23:11:36.580Z,-4.90
2022-12-12T23:14:08.280Z,-4.90
2022-12-12T23:16:37.651Z,-4.90
2022-12-12T23:19:07.165Z,-4.90
2022-12-12T23:21:36.427Z,-4.90
2022-12-12T23:24:04.927Z,-4.90
2022-12-12T23:26:34.188Z,-4.90
2022-12-12T23:29:02.058Z,-4.90
2022-12-12T23:31:32.046Z,-5.00
2022-12-12T23:34:04.737Z,-5.00
2022-12-12T23:36:32.999Z,-5.00
2022-12-12T23:39:02.401Z,-5.00
2022-12-12T23:41:30.452Z,-5.00
2022-12-12T23:43:58.604Z,-5.10
2022-12-12T23:46:32.189Z,-5.10
2022-12-12T23:49:03.298Z,-5.00
2022-12-12T23:51:33.867Z,-5.10
2022-12-12T23:54:03.429Z,-5.10
2022-12-12T23:56:32.042Z,-4.90
2022-12-12T23:59:01.015Z,-5.10
